Terminal Aerodrome Forecast
Issued by NWS Blacksburg, VA

Home | Current Version | Previous Version | Text Only | Print | Product List | Glossary On
Versions: 1 2 3 4 5 6 7 8 9 10 11 12 13 14 15 16 17 18 19 20 21 22 23 24 25 26 27
000
FTUS41 KRNK 311729
TAFDAN
TAF
KDAN 311729Z 3118/0118 15004KT P6SM VCSH BKN025 BKN050
      TEMPO 3121/0101 SCT025 BKN060
     FM010200 00000KT P6SM BKN015
      TEMPO 0109/0112 2SM BR BKN005
     FM011400 03003KT P6SM SCT035=

USA.gov is the U.S. government's official web portal to all federal, state and local government web resources and services.